sensor_id;sensor_type;location;lat;lon;timestamp;temperature;humidity
12959;DHT22;6544;51.666;6.634;2022-10-17T00:01:41;15.70;17.50
12959;DHT22;6544;51.666;6.634;2022-10-17T00:04:08;15.80;26.60
12959;DHT22;6544;51.666;6.634;2022-10-17T00:06:36;15.80;34.50
12959;DHT22;6544;51.666;6.634;2022-10-17T00:09:03;15.80;36.70
12959;DHT22;6544;51.666;6.634;2022-10-17T00:11:31;15.80;34.70
12959;DHT22;6544;51.666;6.634;2022-10-17T00:13:58;15.80;22.50
12959;DHT22;6544;51.666;6.634;2022-10-17T00:16:26;15.80;19.80
12959;DHT22;6544;51.666;6.634;2022-10-17T00:18:55;15.90;10.90
12959;DHT22;6544;51.666;6.634;2022-10-17T00:21:22;15.90;15.30
12959;DHT22;6544;51.666;6.634;2022-10-17T00:23:51;15.90;31.50
12959;DHT22;6544;51.666;6.634;2022-10-17T00:26:18;15.90;44.80
12959;DHT22;6544;51.666;6.634;2022-10-17T00:28:46;15.90;53.30
12959;DHT22;6544;51.666;6.634;2022-10-17T00:31:16;15.90;64.20
12959;DHT22;6544;51.666;6.634;2022-10-17T00:33:43;15.90;83.30
12959;DHT22;6544;51.666;6.634;2022-10-17T00:36:13;16.00;93.60
12959;DHT22;6544;51.666;6.634;2022-10-17T00:38:41;16.00;99.90
12959;DHT22;6544;51.666;6.634;2022-10-17T00:41:10;16.00;99.90
12959;DHT22;6544;51.666;6.634;2022-10-17T00:43:55;16.00;99.90
12959;DHT22;6544;51.666;6.634;2022-10-17T00:46:24;16.00;99.90
12959;DHT22;6544;51.666;6.634;2022-10-17T00:48:53;16.00;99.90
12959;DHT22;6544;51.666;6.634;2022-10-17T00:51:25;16.00;99.90
12959;DHT22;6544;51.666;6.634;2022-10-17T00:53:54;16.00;99.90
12959;DHT22;6544;51.666;6.634;2022-10-17T00:56:22;16.00;99.90
12959;DHT22;6544;51.666;6.634;2022-10-17T00:58:49;16.00;99.90
12959;DHT22;6544;51.666;6.634;2022-10-17T01:01:16;16.00;99.90
12959;DHT22;6544;51.666;6.634;2022-10-17T01:03:43;16.00;99.90
12959;DHT22;6544;51.666;6.634;2022-10-17T01:06:10;16.10;99.90
12959;DHT22;6544;51.666;6.634;2022-10-17T01:08:38;16.10;99.90
12959;DHT22;6544;51.666;6.634;2022-10-17T01:11:14;16.00;99.90
12959;DHT22;6544;51.666;6.634;2022-10-17T01:13:48;16.10;99.90
12959;DHT22;6544;51.666;6.634;2022-10-17T01:16:22;16.10;99.90
12959;DHT22;6544;51.666;6.634;2022-10-17T01:19:02;16.10;99.90
12959;DHT22;6544;51.666;6.634;2022-10-17T01:21:42;16.00;99.90
12959;DHT22;6544;51.666;6.634;2022-10-17T01:24:47;16.10;99.90
12959;DHT22;6544;51.666;6.634;2022-10-17T01:27:37;16.10;99.90
12959;DHT22;6544;51.666;6.634;2022-10-17T01:33:26;16.10;99.90
12959;DHT22;6544;51.666;6.634;2022-10-17T01:35:58;16.00;99.90
12959;DHT22;6544;51.666;6.634;2022-10-17T01:38:30;16.00;99.90
12959;DHT22;6544;51.666;6.634;2022-10-17T01:41:02;16.00;99.90
12959;DHT22;6544;51.666;6.634;2022-10-17T01:43:33;16.00;99.90
12959;DHT22;6544;51.666;6.634;2022-10-17T01:46:09;16.00;99.90
12959;DHT22;6544;51.666;6.634;2022-10-17T01:48:42;16.00;99.90
12959;DHT22;6544;51.666;6.634;2022-10-17T01:51:14;16.00;99.90
12959;DHT22;6544;51.666;6.634;2022-10-17T01:53:48;16.00;99.90
12959;DHT22;6544;51.666;6.634;2022-10-17T01:56:16;16.00;99.90
12959;DHT22;6544;51.666;6.634;2022-10-17T01:58:48;16.00;99.90
12959;DHT22;6544;51.666;6.634;2022-10-17T02:01:16;16.10;99.90
12959;DHT22;6544;51.666;6.634;2022-10-17T02:03:48;16.10;99.90
12959;DHT22;6544;51.666;6.634;2022-10-17T02:06:15;16.10;99.90
12959;DHT22;6544;51.666;6.634;2022-10-17T02:08:44;16.10;99.90
12959;DHT22;6544;51.666;6.634;2022-10-17T02:11:14;16.10;99.90
12959;DHT22;6544;51.666;6.634;2022-10-17T02:16:41;16.10;99.90
12959;DHT22;6544;51.666;6.634;2022-10-17T02:19:36;16.10;99.90
12959;DHT22;6544;51.666;6.634;2022-10-17T02:22:15;16.10;99.90
12959;DHT22;6544;51.666;6.634;2022-10-17T02:24:47;16.10;99.90
12959;DHT22;6544;51.666;6.634;2022-10-17T02:27:19;16.10;99.90
12959;DHT22;6544;51.666;6.634;2022-10-17T02:29:57;16.10;99.90
12959;DHT22;6544;51.666;6.634;2022-10-17T02:32:30;16.10;99.90
12959;DHT22;6544;51.666;6.634;2022-10-17T02:35:02;16.10;99.90
12959;DHT22;6544;51.666;6.634;2022-10-17T02:37:31;16.10;99.90
12959;DHT22;6544;51.666;6.634;2022-10-17T02:40:01;16.10;99.90
12959;DHT22;6544;51.666;6.634;2022-10-17T02:42:29;16.10;99.90
12959;DHT22;6544;51.666;6.634;2022-10-17T02:44:58;16.10;99.90
12959;DHT22;6544;51.666;6.634;2022-10-17T02:47:28;16.10;99.90
12959;DHT22;6544;51.666;6.634;2022-10-17T02:49:58;16.10;99.90
12959;DHT22;6544;51.666;6.634;2022-10-17T02:52:30;16.10;99.90
12959;DHT22;6544;51.666;6.634;2022-10-17T02:55:04;16.10;99.90
12959;DHT22;6544;51.666;6.634;2022-10-17T02:57:35;16.10;99.90
12959;DHT22;6544;51.666;6.634;2022-10-17T03:00:06;16.20;99.90
12959;DHT22;6544;51.666;6.634;2022-10-17T03:02:42;16.20;99.90
12959;DHT22;6544;51.666;6.634;2022-10-17T03:05:11;16.20;99.90
12959;DHT22;6544;51.666;6.634;2022-10-17T03:07:39;16.20;99.90
12959;DHT22;6544;51.666;6.634;2022-10-17T03:10:07;16.20;99.90
12959;DHT22;6544;51.666;6.634;2022-10-17T03:12:33;16.20;99.90
12959;DHT22;6544;51.666;6.634;2022-10-17T03:15:00;16.30;99.90
12959;DHT22;6544;51.666;6.634;2022-10-17T03:17:30;16.30;99.90
12959;DHT22;6544;51.666;6.634;2022-10-17T03:19:56;16.30;99.90
12959;DHT22;6544;51.666;6.634;2022-10-17T03:22:24;16.30;99.90
12959;DHT22;6544;51.666;6.634;2022-10-17T03:24:52;16.30;99.90
12959;DHT22;6544;51.666;6.634;2022-10-17T03:27:19;16.30;99.90
12959;DHT22;6544;51.666;6.634;2022-10-17T03:29:46;16.30;99.90
12959;DHT22;6544;51.666;6.634;2022-10-17T03:32:13;16.30;99.90
12959;DHT22;6544;51.666;6.634;2022-10-17T03:34:39;16.30;99.90
12959;DHT22;6544;51.666;6.634;2022-10-17T03:37:06;16.30;99.90
12959;DHT22;6544;51.666;6.634;2022-10-17T03:39:33;16.40;99.90
12959;DHT22;6544;51.666;6.634;2022-10-17T03:42:01;16.40;99.90
12959;DHT22;6544;51.666;6.634;2022-10-17T03:44:28;16.40;99.90
12959;DHT22;6544;51.666;6.634;2022-10-17T03:46:56;16.40;99.90
12959;DHT22;6544;51.666;6.634;2022-10-17T03:49:23;16.40;99.90
12959;DHT22;6544;51.666;6.634;2022-10-17T03:51:50;16.40;99.90
12959;DHT22;6544;51.666;6.634;2022-10-17T03:54:16;16.40;99.90
12959;DHT22;6544;51.666;6.634;2022-10-17T03:56:44;16.50;99.90
12959;DHT22;6544;51.666;6.634;2022-10-17T03:59:13;16.50;99.90
12959;DHT22;6544;51.666;6.634;2022-10-17T04:01:41;16.50;99.90
12959;DHT22;6544;51.666;6.634;2022-10-17T04:04:08;16.50;99.90
12959;DHT22;6544;51.666;6.634;2022-10-17T04:06:35;16.50;99.90
12959;DHT22;6544;51.666;6.634;2022-10-17T04:09:03;16.60;99.90
12959;DHT22;6544;51.666;6.634;2022-10-17T04:11:30;16.60;99.90
12959;DHT22;6544;51.666;6.634;2022-10-17T04:13:57;16.60;99.90
12959;DHT22;6544;51.666;6.634;2022-10-17T04:16:26;16.60;99.90
12959;DHT22;6544;51.666;6.634;2022-10-17T04:18:54;16.60;99.90
12959;DHT22;6544;51.666;6.634;2022-10-17T04:21:22;16.60;99.90
12959;DHT22;6544;51.666;6.634;2022-10-17T04:23:52;16.70;99.90
12959;DHT22;6544;51.666;6.634;2022-10-17T04:26:19;16.60;99.90
12959;DHT22;6544;51.666;6.634;2022-10-17T04:28:46;16.60;99.90
12959;DHT22;6544;51.666;6.634;2022-10-17T04:31:13;16.70;99.90
12959;DHT22;6544;51.666;6.634;2022-10-17T04:33:42;16.70;99.90
12959;DHT22;6544;51.666;6.634;2022-10-17T04:36:11;16.70;99.90
12959;DHT22;6544;51.666;6.634;2022-10-17T04:38:38;16.70;99.90
12959;DHT22;6544;51.666;6.634;2022-10-17T04:41:07;16.70;99.90
12959;DHT22;6544;51.666;6.634;2022-10-17T04:43:37;16.80;99.90
12959;DHT22;6544;51.666;6.634;2022-10-17T04:46:06;16.80;99.90
12959;DHT22;6544;51.666;6.634;2022-10-17T04:48:34;16.80;99.90
12959;DHT22;6544;51.666;6.634;2022-10-17T04:51:03;16.80;99.90
12959;DHT22;6544;51.666;6.634;2022-10-17T04:53:31;16.80;99.90
12959;DHT22;6544;51.666;6.634;2022-10-17T04:55:58;16.90;99.90
12959;DHT22;6544;51.666;6.634;2022-10-17T04:58:27;16.80;99.90
12959;DHT22;6544;51.666;6.634;2022-10-17T05:00:55;16.80;99.90
12959;DHT22;6544;51.666;6.634;2022-10-17T05:03:22;16.80;99.90
12959;DHT22;6544;51.666;6.634;2022-10-17T05:05:49;16.90;99.90
12959;DHT22;6544;51.666;6.634;2022-10-17T05:08:17;16.90;99.90
12959;DHT22;6544;51.666;6.634;2022-10-17T05:10:44;16.90;99.90
12959;DHT22;6544;51.666;6.634;2022-10-17T05:13:12;16.90;99.90
12959;DHT22;6544;51.666;6.634;2022-10-17T05:15:39;16.90;99.90
12959;DHT22;6544;51.666;6.634;2022-10-17T05:18:09;16.90;99.90
12959;DHT22;6544;51.666;6.634;2022-10-17T05:20:36;16.90;99.90
12959;DHT22;6544;51.666;6.634;2022-10-17T05:23:03;16.90;99.90
12959;DHT22;6544;51.666;6.634;2022-10-17T05:25:31;16.90;99.90
12959;DHT22;6544;51.666;6.634;2022-10-17T05:27:58;16.90;99.90
12959;DHT22;6544;51.666;6.634;2022-10-17T05:30:25;16.90;99.90
12959;DHT22;6544;51.666;6.634;2022-10-17T05:32:52;17.00;99.90
12959;DHT22;6544;51.666;6.634;2022-10-17T05:35:20;16.90;99.90
12959;DHT22;6544;51.666;6.634;2022-10-17T05:37:47;16.90;99.90
12959;DHT22;6544;51.666;6.634;2022-10-17T05:40:14;17.00;99.90
12959;DHT22;6544;51.666;6.634;2022-10-17T05:42:46;17.00;99.90
12959;DHT22;6544;51.666;6.634;2022-10-17T05:45:13;17.00;99.90
12959;DHT22;6544;51.666;6.634;2022-10-17T05:47:40;17.00;99.90
12959;DHT22;6544;51.666;6.634;2022-10-17T05:50:08;17.00;99.90
12959;DHT22;6544;51.666;6.634;2022-10-17T05:52:35;17.00;99.90
12959;DHT22;6544;51.666;6.634;2022-10-17T05:55:02;17.00;99.90
12959;DHT22;6544;51.666;6.634;2022-10-17T05:57:29;17.00;99.90
12959;DHT22;6544;51.666;6.634;2022-10-17T05:59:57;17.00;99.90
12959;DHT22;6544;51.666;6.634;2022-10-17T06:02:25;17.00;99.90
12959;DHT22;6544;51.666;6.634;2022-10-17T06:04:54;17.00;99.90
12959;DHT22;6544;51.666;6.634;2022-10-17T06:07:21;17.00;99.90
12959;DHT22;6544;51.666;6.634;2022-10-17T06:09:48;17.00;99.90
12959;DHT22;6544;51.666;6.634;2022-10-17T06:12:15;17.00;99.90
12959;DHT22;6544;51.666;6.634;2022-10-17T06:14:42;17.00;99.90
12959;DHT22;6544;51.666;6.634;2022-10-17T06:17:10;17.00;99.90
12959;DHT22;6544;51.666;6.634;2022-10-17T06:19:37;17.00;99.90
12959;DHT22;6544;51.666;6.634;2022-10-17T06:22:06;17.00;99.90
12959;DHT22;6544;51.666;6.634;2022-10-17T06:24:33;17.00;99.90
12959;DHT22;6544;51.666;6.634;2022-10-17T06:27:00;17.00;99.90
12959;DHT22;6544;51.666;6.634;2022-10-17T06:29:26;17.00;99.90
12959;DHT22;6544;51.666;6.634;2022-10-17T06:31:53;17.10;98.30
12959;DHT22;6544;51.666;6.634;2022-10-17T06:34:22;17.10;97.80
12959;DHT22;6544;51.666;6.634;2022-10-17T06:36:49;17.10;95.30
12959;DHT22;6544;51.666;6.634;2022-10-17T06:39:15;17.10;95.80
12959;DHT22;6544;51.666;6.634;2022-10-17T06:41:45;17.10;94.80
12959;DHT22;6544;51.666;6.634;2022-10-17T06:44:12;17.10;93.50
12959;DHT22;6544;51.666;6.634;2022-10-17T06:46:39;17.10;92.90
12959;DHT22;6544;51.666;6.634;2022-10-17T06:49:08;17.10;91.30
12959;DHT22;6544;51.666;6.634;2022-10-17T06:51:36;17.20;90.90
12959;DHT22;6544;51.666;6.634;2022-10-17T06:54:03;17.20;88.10
12959;DHT22;6544;51.666;6.634;2022-10-17T06:56:30;17.20;87.00
12959;DHT22;6544;51.666;6.634;2022-10-17T06:58:57;17.20;82.00
12959;DHT22;6544;51.666;6.634;2022-10-17T07:01:26;17.30;78.10
12959;DHT22;6544;51.666;6.634;2022-10-17T07:03:54;17.30;75.90
12959;DHT22;6544;51.666;6.634;2022-10-17T07:06:21;17.30;71.20
12959;DHT22;6544;51.666;6.634;2022-10-17T07:08:50;17.30;70.50
12959;DHT22;6544;51.666;6.634;2022-10-17T07:11:19;17.30;62.80
12959;DHT22;6544;51.666;6.634;2022-10-17T07:13:48;17.40;61.00
12959;DHT22;6544;51.666;6.634;2022-10-17T07:16:15;17.40;57.90
12959;DHT22;6544;51.666;6.634;2022-10-17T07:18:42;17.40;55.30
12959;DHT22;6544;51.666;6.634;2022-10-17T07:21:10;17.40;54.00
12959;DHT22;6544;51.666;6.634;2022-10-17T07:23:37;17.40;54.40
12959;DHT22;6544;51.666;6.634;2022-10-17T07:26:07;17.50;48.40
12959;DHT22;6544;51.666;6.634;2022-10-17T07:28:36;17.50;43.10
12959;DHT22;6544;51.666;6.634;2022-10-17T07:31:04;17.60;41.70
12959;DHT22;6544;51.666;6.634;2022-10-17T07:33:31;17.60;37.00
12959;DHT22;6544;51.666;6.634;2022-10-17T07:35:58;17.60;27.60
12959;DHT22;6544;51.666;6.634;2022-10-17T07:38:25;17.70;22.20
12959;DHT22;6544;51.666;6.634;2022-10-17T07:40:53;17.80;21.80
12959;DHT22;6544;51.666;6.634;2022-10-17T07:43:21;17.80;23.10
12959;DHT22;6544;51.666;6.634;2022-10-17T07:45:49;17.80;18.70
12959;DHT22;6544;51.666;6.634;2022-10-17T07:48:16;17.90;6.50
12959;DHT22;6544;51.666;6.634;2022-10-17T07:50:43;17.90;1.00
12959;DHT22;6544;51.666;6.634;2022-10-17T07:53:10;17.90;1.00
12959;DHT22;6544;51.666;6.634;2022-10-17T07:55:37;18.00;1.00
12959;DHT22;6544;51.666;6.634;2022-10-17T07:58:04;18.00;1.00
12959;DHT22;6544;51.666;6.634;2022-10-17T08:00:32;18.00;1.00
12959;DHT22;6544;51.666;6.634;2022-10-17T08:02:59;18.10;1.00
12959;DHT22;6544;51.666;6.634;2022-10-17T08:05:26;18.20;1.00
12959;DHT22;6544;51.666;6.634;2022-10-17T08:07:53;18.20;1.00
12959;DHT22;6544;51.666;6.634;2022-10-17T08:10:21;18.30;1.00
12959;DHT22;6544;51.666;6.634;2022-10-17T08:12:52;18.40;1.00
12959;DHT22;6544;51.666;6.634;2022-10-17T08:15:19;18.40;1.00
12959;DHT22;6544;51.666;6.634;2022-10-17T08:17:47;18.50;1.00
12959;DHT22;6544;51.666;6.634;2022-10-17T08:20:14;18.50;1.00
12959;DHT22;6544;51.666;6.634;2022-10-17T08:22:41;18.60;1.00
12959;DHT22;6544;51.666;6.634;2022-10-17T08:25:09;18.70;1.00
12959;DHT22;6544;51.666;6.634;2022-10-17T08:27:36;18.70;1.00
12959;DHT22;6544;51.666;6.634;2022-10-17T08:30:03;18.70;1.00
12959;DHT22;6544;51.666;6.634;2022-10-17T08:32:30;18.80;1.00
12959;DHT22;6544;51.666;6.634;2022-10-17T08:34:58;18.80;1.00
12959;DHT22;6544;51.666;6.634;2022-10-17T08:37:25;19.00;1.00
12959;DHT22;6544;51.666;6.634;2022-10-17T08:39:52;19.10;1.00
12959;DHT22;6544;51.666;6.634;2022-10-17T08:42:36;19.10;1.00
12959;DHT22;6544;51.666;6.634;2022-10-17T08:45:12;19.20;1.00
12959;DHT22;6544;51.666;6.634;2022-10-17T08:47:44;19.30;1.00
12959;DHT22;6544;51.666;6.634;2022-10-17T08:50:17;19.30;1.00
12959;DHT22;6544;51.666;6.634;2022-10-17T08:52:50;19.40;1.00
12959;DHT22;6544;51.666;6.634;2022-10-17T08:55:26;19.50;1.00
12959;DHT22;6544;51.666;6.634;2022-10-17T08:57:55;19.60;99.90
12959;DHT22;6544;51.666;6.634;2022-10-17T09:00:21;19.60;99.90
12959;DHT22;6544;51.666;6.634;2022-10-17T09:02:57;19.70;99.90
12959;DHT22;6544;51.666;6.634;2022-10-17T09:05:36;19.70;99.90
12959;DHT22;6544;51.666;6.634;2022-10-17T09:08:17;19.70;99.90
12959;DHT22;6544;51.666;6.634;2022-10-17T09:10:55;19.70;99.90
12959;DHT22;6544;51.666;6.634;2022-10-17T09:13:36;19.70;99.90
12959;DHT22;6544;51.666;6.634;2022-10-17T09:16:24;19.70;99.90
12959;DHT22;6544;51.666;6.634;2022-10-17T09:19:00;19.70;99.90
12959;DHT22;6544;51.666;6.634;2022-10-17T09:21:37;19.80;1.00
12959;DHT22;6544;51.666;6.634;2022-10-17T09:24:11;19.80;99.90
12959;DHT22;6544;51.666;6.634;2022-10-17T09:26:39;19.80;99.90
12959;DHT22;6544;51.666;6.634;2022-10-17T09:29:16;19.80;1.00
12959;DHT22;6544;51.666;6.634;2022-10-17T09:31:47;19.80;1.00
12959;DHT22;6544;51.666;6.634;2022-10-17T09:34:15;19.80;1.00
12959;DHT22;6544;51.666;6.634;2022-10-17T09:36:44;19.80;1.00
12959;DHT22;6544;51.666;6.634;2022-10-17T09:39:13;19.90;1.00
12959;DHT22;6544;51.666;6.634;2022-10-17T09:41:42;19.90;1.00
12959;DHT22;6544;51.666;6.634;2022-10-17T09:44:15;19.80;1.00
12959;DHT22;6544;51.666;6.634;2022-10-17T09:46:49;19.80;1.00
12959;DHT22;6544;51.666;6.634;2022-10-17T09:49:25;19.80;1.00
12959;DHT22;6544;51.666;6.634;2022-10-17T09:51:54;19.80;1.00
12959;DHT22;6544;51.666;6.634;2022-10-17T09:54:23;19.80;1.00
12959;DHT22;6544;51.666;6.634;2022-10-17T09:57:00;19.80;1.00
12959;DHT22;6544;51.666;6.634;2022-10-17T09:59:30;19.70;1.00
12959;DHT22;6544;51.666;6.634;2022-10-17T10:02:08;19.80;1.00
12959;DHT22;6544;51.666;6.634;2022-10-17T10:04:35;19.70;1.00
12959;DHT22;6544;51.666;6.634;2022-10-17T10:07:05;19.70;1.00
12959;DHT22;6544;51.666;6.634;2022-10-17T10:09:36;19.60;1.00
12959;DHT22;6544;51.666;6.634;2022-10-17T10:12:13;19.70;1.00
12959;DHT22;6544;51.666;6.634;2022-10-17T10:14:41;19.70;1.00
12959;DHT22;6544;51.666;6.634;2022-10-17T10:17:28;19.60;98.80
12959;DHT22;6544;51.666;6.634;2022-10-17T10:19:55;19.60;1.00
12959;DHT22;6544;51.666;6.634;2022-10-17T10:22:24;19.60;1.00
12959;DHT22;6544;51.666;6.634;2022-10-17T10:25:06;19.50;1.00
12959;DHT22;6544;51.666;6.634;2022-10-17T10:27:34;19.60;1.00
12959;DHT22;6544;51.666;6.634;2022-10-17T10:30:02;19.50;70.70
12959;DHT22;6544;51.666;6.634;2022-10-17T10:32:31;19.60;99.90
12959;DHT22;6544;51.666;6.634;2022-10-17T10:35:01;19.60;99.90
12959;DHT22;6544;51.666;6.634;2022-10-17T10:37:34;19.60;1.00
12959;DHT22;6544;51.666;6.634;2022-10-17T10:40:05;19.60;1.00
12959;DHT22;6544;51.666;6.634;2022-10-17T10:42:34;19.60;1.00
12959;DHT22;6544;51.666;6.634;2022-10-17T10:45:13;19.60;1.00
12959;DHT22;6544;51.666;6.634;2022-10-17T10:47:49;19.60;1.00
12959;DHT22;6544;51.666;6.634;2022-10-17T10:50:22;19.60;1.00
12959;DHT22;6544;51.666;6.634;2022-10-17T10:52:56;19.50;42.50
12959;DHT22;6544;51.666;6.634;2022-10-17T10:55:28;19.50;99.90
12959;DHT22;6544;51.666;6.634;2022-10-17T10:58:15;19.50;99.90
12959;DHT22;6544;51.666;6.634;2022-10-17T11:00:46;19.50;99.90
12959;DHT22;6544;51.666;6.634;2022-10-17T11:03:16;19.50;99.90
12959;DHT22;6544;51.666;6.634;2022-10-17T11:05:50;19.40;99.90
12959;DHT22;6544;51.666;6.634;2022-10-17T11:08:27;19.40;1.00
12959;DHT22;6544;51.666;6.634;2022-10-17T11:11:04;19.40;1.00
12959;DHT22;6544;51.666;6.634;2022-10-17T11:13:36;19.40;1.00
12959;DHT22;6544;51.666;6.634;2022-10-17T11:16:15;19.30;1.00
12959;DHT22;6544;51.666;6.634;2022-10-17T11:18:47;19.20;1.00
12959;DHT22;6544;51.666;6.634;2022-10-17T11:21:17;19.20;1.00
12959;DHT22;6544;51.666;6.634;2022-10-17T11:23:50;19.20;1.00
12959;DHT22;6544;51.666;6.634;2022-10-17T11:26:26;19.10;1.00
12959;DHT22;6544;51.666;6.634;2022-10-17T11:28:54;19.10;1.00
12959;DHT22;6544;51.666;6.634;2022-10-17T11:31:24;19.10;1.00
12959;DHT22;6544;51.666;6.634;2022-10-17T11:33:55;19.10;1.00
12959;DHT22;6544;51.666;6.634;2022-10-17T11:36:26;19.10;1.00
12959;DHT22;6544;51.666;6.634;2022-10-17T11:38:59;19.10;1.00
12959;DHT22;6544;51.666;6.634;2022-10-17T11:41:30;19.10;1.00
12959;DHT22;6544;51.666;6.634;2022-10-17T11:44:04;19.20;1.00
12959;DHT22;6544;51.666;6.634;2022-10-17T11:46:34;19.20;1.00
12959;DHT22;6544;51.666;6.634;2022-10-17T11:49:09;19.20;1.00
12959;DHT22;6544;51.666;6.634;2022-10-17T11:51:42;19.20;1.00
12959;DHT22;6544;51.666;6.634;2022-10-17T11:54:15;19.20;1.00
12959;DHT22;6544;51.666;6.634;2022-10-17T11:56:48;19.20;1.00
12959;DHT22;6544;51.666;6.634;2022-10-17T11:59:45;19.20;1.00
12959;DHT22;6544;51.666;6.634;2022-10-17T12:02:22;19.10;1.00
12959;DHT22;6544;51.666;6.634;2022-10-17T12:04:59;19.10;2.00
12959;DHT22;6544;51.666;6.634;2022-10-17T12:07:36;19.20;1.00
12959;DHT22;6544;51.666;6.634;2022-10-17T12:10:17;19.10;1.00
12959;DHT22;6544;51.666;6.634;2022-10-17T12:12:46;19.20;1.00
12959;DHT22;6544;51.666;6.634;2022-10-17T12:15:27;19.20;1.00
12959;DHT22;6544;51.666;6.634;2022-10-17T12:17:55;19.20;1.00
12959;DHT22;6544;51.666;6.634;2022-10-17T12:20:31;19.20;1.00
12959;DHT22;6544;51.666;6.634;2022-10-17T12:23:20;19.20;1.00
12959;DHT22;6544;51.666;6.634;2022-10-17T12:25:52;19.20;1.00
12959;DHT22;6544;51.666;6.634;2022-10-17T12:28:29;19.20;1.00
12959;DHT22;6544;51.666;6.634;2022-10-17T12:30:59;19.20;1.00
12959;DHT22;6544;51.666;6.634;2022-10-17T12:33:32;19.20;1.00
12959;DHT22;6544;51.666;6.634;2022-10-17T12:39:40;19.20;1.00
12959;DHT22;6544;51.666;6.634;2022-10-17T12:42:43;19.20;1.00
12959;DHT22;6544;51.666;6.634;2022-10-17T12:45:46;19.20;1.00
12959;DHT22;6544;51.666;6.634;2022-10-17T12:51:02;19.30;1.00
12959;DHT22;6544;51.666;6.634;2022-10-17T12:53:37;19.30;1.00
12959;DHT22;6544;51.666;6.634;2022-10-17T12:56:07;19.30;1.20
12959;DHT22;6544;51.666;6.634;2022-10-17T12:58:36;19.30;1.00
12959;DHT22;6544;51.666;6.634;2022-10-17T13:01:04;19.30;1.00
12959;DHT22;6544;51.666;6.634;2022-10-17T13:03:41;19.30;1.00
12959;DHT22;6544;51.666;6.634;2022-10-17T13:06:15;19.30;1.00
12959;DHT22;6544;51.666;6.634;2022-10-17T13:08:47;19.40;1.00
12959;DHT22;6544;51.666;6.634;2022-10-17T13:11:22;19.40;1.00
12959;DHT22;6544;51.666;6.634;2022-10-17T13:13:52;19.30;1.00
12959;DHT22;6544;51.666;6.634;2022-10-17T13:16:27;19.20;1.00
12959;DHT22;6544;51.666;6.634;2022-10-17T13:18:55;19.20;1.00
12959;DHT22;6544;51.666;6.634;2022-10-17T13:21:22;19.20;1.00
12959;DHT22;6544;51.666;6.634;2022-10-17T13:23:49;19.20;1.00
12959;DHT22;6544;51.666;6.634;2022-10-17T13:26:19;19.20;9.70
12959;DHT22;6544;51.666;6.634;2022-10-17T13:29:01;19.20;18.20
12959;DHT22;6544;51.666;6.634;2022-10-17T13:31:30;19.20;18.30
12959;DHT22;6544;51.666;6.634;2022-10-17T13:33:58;19.20;20.70
12959;DHT22;6544;51.666;6.634;2022-10-17T13:36:26;19.10;30.70
12959;DHT22;6544;51.666;6.634;2022-10-17T13:38:54;19.10;28.30
12959;DHT22;6544;51.666;6.634;2022-10-17T13:41:24;19.10;30.70
12959;DHT22;6544;51.666;6.634;2022-10-17T13:43:52;19.10;46.60
12959;DHT22;6544;51.666;6.634;2022-10-17T13:46:26;19.10;53.70
12959;DHT22;6544;51.666;6.634;2022-10-17T13:48:55;19.10;63.10
12959;DHT22;6544;51.666;6.634;2022-10-17T13:51:25;19.10;55.60
12959;DHT22;6544;51.666;6.634;2022-10-17T13:53:53;19.10;57.80
12959;DHT22;6544;51.666;6.634;2022-10-17T13:56:21;19.10;63.10
12959;DHT22;6544;51.666;6.634;2022-10-17T13:58:51;19.10;58.50
12959;DHT22;6544;51.666;6.634;2022-10-17T14:01:21;19.10;75.70
12959;DHT22;6544;51.666;6.634;2022-10-17T14:03:53;19.10;67.90
12959;DHT22;6544;51.666;6.634;2022-10-17T14:06:21;19.00;70.60
12959;DHT22;6544;51.666;6.634;2022-10-17T14:08:53;19.10;58.00
12959;DHT22;6544;51.666;6.634;2022-10-17T14:11:32;19.10;48.80
12959;DHT22;6544;51.666;6.634;2022-10-17T14:14:01;19.10;43.80
12959;DHT22;6544;51.666;6.634;2022-10-17T14:16:35;19.10;51.90
12959;DHT22;6544;51.666;6.634;2022-10-17T14:19:04;19.00;57.10
12959;DHT22;6544;51.666;6.634;2022-10-17T14:21:32;19.00;71.20
12959;DHT22;6544;51.666;6.634;2022-10-17T14:24:25;19.00;65.50
12959;DHT22;6544;51.666;6.634;2022-10-17T14:26:54;18.90;74.00
12959;DHT22;6544;51.666;6.634;2022-10-17T14:29:24;18.80;95.50
12959;DHT22;6544;51.666;6.634;2022-10-17T14:32:03;19.00;88.90
12959;DHT22;6544;51.666;6.634;2022-10-17T14:34:36;19.00;74.90
12959;DHT22;6544;51.666;6.634;2022-10-17T14:37:08;18.90;83.00
12959;DHT22;6544;51.666;6.634;2022-10-17T14:39:36;18.90;71.70
12959;DHT22;6544;51.666;6.634;2022-10-17T14:42:03;18.90;84.30
12959;DHT22;6544;51.666;6.634;2022-10-17T14:44:32;18.80;80.60
12959;DHT22;6544;51.666;6.634;2022-10-17T14:47:03;18.70;93.40
12959;DHT22;6544;51.666;6.634;2022-10-17T14:49:37;18.80;97.90
12959;DHT22;6544;51.666;6.634;2022-10-17T14:52:29;18.80;90.30
12959;DHT22;6544;51.666;6.634;2022-10-17T14:54:57;18.80;92.10
12959;DHT22;6544;51.666;6.634;2022-10-17T14:57:33;18.80;97.80
12959;DHT22;6544;51.666;6.634;2022-10-17T15:00:06;18.90;93.30
12959;DHT22;6544;51.666;6.634;2022-10-17T15:02:33;18.90;81.50
12959;DHT22;6544;51.666;6.634;2022-10-17T15:05:02;18.90;92.50
12959;DHT22;6544;51.666;6.634;2022-10-17T15:07:28;18.80;96.30
12959;DHT22;6544;51.666;6.634;2022-10-17T15:09:55;18.80;99.90
12959;DHT22;6544;51.666;6.634;2022-10-17T15:12:24;18.90;98.30
12959;DHT22;6544;51.666;6.634;2022-10-17T15:14:51;18.80;99.90
12959;DHT22;6544;51.666;6.634;2022-10-17T15:17:22;18.80;99.90
12959;DHT22;6544;51.666;6.634;2022-10-17T15:19:50;18.70;99.90
12959;DHT22;6544;51.666;6.634;2022-10-17T15:22:19;18.80;99.90
12959;DHT22;6544;51.666;6.634;2022-10-17T15:24:46;18.80;99.90
12959;DHT22;6544;51.666;6.634;2022-10-17T15:27:15;18.70;99.90
12959;DHT22;6544;51.666;6.634;2022-10-17T15:29:42;18.70;99.90
12959;DHT22;6544;51.666;6.634;2022-10-17T15:32:09;18.60;99.90
12959;DHT22;6544;51.666;6.634;2022-10-17T15:34:36;18.60;99.90
12959;DHT22;6544;51.666;6.634;2022-10-17T15:37:04;18.60;99.90
12959;DHT22;6544;51.666;6.634;2022-10-17T15:39:33;18.50;99.90
12959;DHT22;6544;51.666;6.634;2022-10-17T15:42:00;18.50;99.90
12959;DHT22;6544;51.666;6.634;2022-10-17T15:44:27;18.60;99.90
12959;DHT22;6544;51.666;6.634;2022-10-17T15:46:54;18.50;99.90
12959;DHT22;6544;51.666;6.634;2022-10-17T15:49:21;18.60;99.90
12959;DHT22;6544;51.666;6.634;2022-10-17T15:51:48;18.60;99.90
12959;DHT22;6544;51.666;6.634;2022-10-17T15:54:15;18.50;99.90
12959;DHT22;6544;51.666;6.634;2022-10-17T15:56:47;18.60;99.90
12959;DHT22;6544;51.666;6.634;2022-10-17T15:59:19;18.70;99.90
12959;DHT22;6544;51.666;6.634;2022-10-17T16:01:47;18.60;99.90
12959;DHT22;6544;51.666;6.634;2022-10-17T16:04:14;18.60;99.90
12959;DHT22;6544;51.666;6.634;2022-10-17T16:06:41;18.60;99.90
12959;DHT22;6544;51.666;6.634;2022-10-17T16:09:09;18.60;99.90
12959;DHT22;6544;51.666;6.634;2022-10-17T16:11:38;18.50;99.90
12959;DHT22;6544;51.666;6.634;2022-10-17T16:14:12;18.50;99.90
12959;DHT22;6544;51.666;6.634;2022-10-17T16:16:39;18.60;99.90
12959;DHT22;6544;51.666;6.634;2022-10-17T16:19:06;18.60;99.90
12959;DHT22;6544;51.666;6.634;2022-10-17T16:21:35;18.50;99.90
12959;DHT22;6544;51.666;6.634;2022-10-17T16:24:03;18.50;99.90